createdAt,value
2023-06-27T00:02:13.866Z,2.40
2023-06-27T00:04:41.960Z,2.33
2023-06-27T00:07:11.846Z,2.33
2023-06-27T00:09:40.621Z,2.15
2023-06-27T00:12:10.178Z,2.28
2023-06-27T00:14:38.493Z,2.30
2023-06-27T00:17:13.600Z,2.42
2023-06-27T00:19:41.604Z,2.40
2023-06-27T00:22:10.692Z,2.03
2023-06-27T00:24:38.886Z,2.42
2023-06-27T00:27:07.736Z,2.83
2023-06-27T00:29:35.680Z,2.40
2023-06-27T00:32:03.588Z,2.45
2023-06-27T00:34:32.785Z,2.80
2023-06-27T00:37:00.533Z,3.20
2023-06-27T00:39:28.355Z,2.33
2023-06-27T00:42:00.385Z,2.47
2023-06-27T00:44:28.178Z,3.13
2023-06-27T00:46:56.030Z,3.03
2023-06-27T00:49:23.972Z,2.97
2023-06-27T00:51:55.986Z,2.78
2023-06-27T00:54:25.461Z,2.90
2023-06-27T00:56:55.175Z,2.80
2023-06-27T00:59:23.428Z,2.55
2023-06-27T01:01:51.146Z,3.65
2023-06-27T01:04:18.867Z,3.15
2023-06-27T01:06:57.278Z,3.00
2023-06-27T01:09:33.185Z,3.05
2023-06-27T01:12:11.037Z,3.15
2023-06-27T01:14:40.691Z,2.80
2023-06-27T01:17:09.685Z,2.75
2023-06-27T01:19:38.748Z,3.10
2023-06-27T01:22:10.992Z,3.03
2023-06-27T01:24:40.587Z,3.47
2023-06-27T01:27:12.446Z,3.28
2023-06-27T01:29:42.101Z,3.08
2023-06-27T01:32:19.336Z,3.25
2023-06-27T01:34:53.270Z,3.15
2023-06-27T01:37:25.736Z,3.83
2023-06-27T01:40:03.404Z,2.88
2023-06-27T01:42:40.415Z,3.03
2023-06-27T01:45:10.462Z,3.33
2023-06-27T01:47:42.578Z,3.80
2023-06-27T01:50:12.061Z,3.03
2023-06-27T01:52:39.963Z,3.80
2023-06-27T01:55:10.669Z,3.97
2023-06-27T01:57:39.008Z,3.13
2023-06-27T02:00:08.632Z,3.83
2023-06-27T02:02:36.588Z,3.92
2023-06-27T02:05:04.495Z,3.63
2023-06-27T02:07:32.312Z,3.80
2023-06-27T02:10:00.124Z,3.55
2023-06-27T02:12:29.524Z,3.50
2023-06-27T02:14:57.390Z,3.30
2023-06-27T02:17:25.266Z,3.35
2023-06-27T02:19:53.262Z,3.55
2023-06-27T02:22:23.159Z,3.28
2023-06-27T02:24:51.008Z,4.10
2023-06-27T02:27:18.804Z,3.78
2023-06-27T02:29:47.999Z,3.88
2023-06-27T02:32:15.817Z,3.65
2023-06-27T02:34:43.678Z,3.70
2023-06-27T02:37:11.526Z,3.90
2023-06-27T02:39:39.306Z,4.20
2023-06-27T02:42:07.864Z,4.07
2023-06-27T02:44:40.440Z,3.78
2023-06-27T02:47:09.768Z,3.50
2023-06-27T02:49:37.552Z,3.70
2023-06-27T02:52:05.970Z,3.65
2023-06-27T02:54:33.718Z,4.47
2023-06-27T02:57:01.499Z,4.38
2023-06-27T02:59:29.390Z,3.63
2023-06-27T03:01:57.178Z,4.03
2023-06-27T03:04:26.644Z,4.72
2023-06-27T03:06:55.074Z,4.10
2023-06-27T03:09:22.900Z,3.45
2023-06-27T03:11:50.717Z,3.92
2023-06-27T03:14:20.042Z,3.63
2023-06-27T03:16:48.098Z,3.95
2023-06-27T03:19:15.973Z,3.90
2023-06-27T03:21:46.559Z,3.92
2023-06-27T03:24:14.332Z,4.15
2023-06-27T03:26:42.174Z,4.47
2023-06-27T03:29:09.952Z,4.07
2023-06-27T03:31:38.028Z,3.70
2023-06-27T03:34:05.939Z,4.00
2023-06-27T03:36:35.047Z,3.53
2023-06-27T03:39:05.789Z,3.53
2023-06-27T03:41:33.636Z,3.60
2023-06-27T03:44:01.885Z,3.30
2023-06-27T03:46:30.594Z,3.67
2023-06-27T03:48:59.921Z,3.65
2023-06-27T03:51:30.224Z,3.33
2023-06-27T03:53:58.016Z,4.35
2023-06-27T03:56:27.206Z,4.35
2023-06-27T03:58:54.991Z,3.45
2023-06-27T04:01:22.806Z,3.00
2023-06-27T04:03:50.822Z,3.25
2023-06-27T04:06:19.755Z,3.33
2023-06-27T04:08:47.823Z,3.60
2023-06-27T04:11:15.752Z,3.08
2023-06-27T04:13:44.863Z,3.13
2023-06-27T04:16:12.652Z,2.88
2023-06-27T04:18:40.473Z,2.35
2023-06-27T04:21:08.719Z,2.40
2023-06-27T04:23:36.575Z,2.45
2023-06-27T04:26:06.318Z,2.50
2023-06-27T04:28:34.269Z,2.30
2023-06-27T04:31:04.289Z,2.80
2023-06-27T04:33:32.597Z,2.45
2023-06-27T04:36:02.489Z,2.35
2023-06-27T04:38:31.511Z,2.30
2023-06-27T04:40:59.416Z,2.60
2023-06-27T04:43:28.371Z,2.20
2023-06-27T04:45:56.316Z,2.38
2023-06-27T04:48:26.340Z,2.50
2023-06-27T04:50:54.963Z,2.58
2023-06-27T04:53:23.103Z,2.45
2023-06-27T04:55:51.602Z,2.55
2023-06-27T04:58:20.051Z,2.10
2023-06-27T05:00:49.280Z,2.28
2023-06-27T05:03:18.841Z,2.05
2023-06-27T05:05:48.112Z,2.10
2023-06-27T05:08:16.004Z,1.95
2023-06-27T05:10:43.870Z,1.80
2023-06-27T05:13:13.444Z,2.22
2023-06-27T05:15:44.149Z,2.15
2023-06-27T05:18:25.658Z,1.92
2023-06-27T05:20:55.327Z,2.28
2023-06-27T05:23:23.257Z,1.98
2023-06-27T05:25:51.706Z,1.67
2023-06-27T05:28:19.610Z,1.40
2023-06-27T05:30:47.558Z,1.63
2023-06-27T05:33:15.548Z,1.58
2023-06-27T05:35:43.619Z,1.70
2023-06-27T05:38:12.886Z,1.45
2023-06-27T05:40:40.749Z,1.52
2023-06-27T05:43:09.661Z,1.70
2023-06-27T05:45:38.348Z,1.73
2023-06-27T05:48:07.046Z,1.23
2023-06-27T05:50:35.754Z,2.00
2023-06-27T05:53:03.568Z,1.98
2023-06-27T05:55:33.115Z,2.03
2023-06-27T05:58:01.156Z,1.73
2023-06-27T06:00:29.398Z,1.70
2023-06-27T06:02:57.229Z,1.70
2023-06-27T06:05:25.075Z,1.60
2023-06-27T06:07:52.966Z,1.20
2023-06-27T06:10:22.948Z,1.50
2023-06-27T06:12:52.808Z,1.52
2023-06-27T06:15:20.574Z,1.33
2023-06-27T06:17:48.946Z,1.73
2023-06-27T06:20:16.763Z,1.70
2023-06-27T06:22:44.651Z,1.52
2023-06-27T06:25:12.545Z,1.73
2023-06-27T06:27:40.329Z,1.67
2023-06-27T06:30:10.880Z,1.67
2023-06-27T06:32:38.954Z,1.50
2023-06-27T06:35:08.411Z,1.35
2023-06-27T06:37:36.292Z,1.60
2023-06-27T06:40:04.450Z,1.40
2023-06-27T06:42:32.304Z,1.92
2023-06-27T06:45:00.095Z,1.60
2023-06-27T06:47:29.328Z,1.35
2023-06-27T06:49:57.170Z,1.10
2023-06-27T06:52:24.992Z,1.30
2023-06-27T06:54:52.740Z,1.30
2023-06-27T06:57:20.575Z,1.42
2023-06-27T06:59:48.872Z,1.30
2023-06-27T07:02:16.648Z,1.25
2023-06-27T07:04:46.019Z,1.48
2023-06-27T07:07:14.195Z,1.48
2023-06-27T07:09:42.186Z,1.17
2023-06-27T07:12:10.751Z,1.27
2023-06-27T07:14:38.581Z,0.98
2023-06-27T07:17:07.200Z,1.70
2023-06-27T07:19:35.140Z,1.00
2023-06-27T07:22:04.442Z,1.30
2023-06-27T07:24:32.215Z,1.10
2023-06-27T07:27:00.039Z,1.02
2023-06-27T07:29:27.925Z,1.55
2023-06-27T07:31:56.246Z,0.90
2023-06-27T07:34:24.132Z,1.10
2023-06-27T07:36:52.525Z,1.27
2023-06-27T07:41:51.205Z,0.85
2023-06-27T07:44:19.180Z,0.95
2023-06-27T07:46:47.021Z,1.05
2023-06-27T07:49:15.367Z,0.80
2023-06-27T07:51:43.461Z,1.00
2023-06-27T07:54:12.619Z,0.73
2023-06-27T07:56:41.815Z,0.90
2023-06-27T07:59:10.071Z,1.23
2023-06-27T08:01:37.942Z,1.00
2023-06-27T08:04:05.881Z,0.80
2023-06-27T08:06:34.272Z,0.75
2023-06-27T08:09:02.446Z,0.85
2023-06-27T08:11:30.377Z,0.85
2023-06-27T08:13:59.615Z,0.73
2023-06-27T08:16:27.623Z,1.13
2023-06-27T08:18:55.379Z,1.20
2023-06-27T08:21:23.152Z,0.98
2023-06-27T08:23:50.934Z,0.60
2023-06-27T08:26:19.420Z,0.82
2023-06-27T08:28:47.496Z,0.60
2023-06-27T08:31:16.706Z,0.70
2023-06-27T08:33:44.484Z,0.80
2023-06-27T08:36:12.455Z,0.70
2023-06-27T08:38:40.281Z,1.05
2023-06-27T08:41:08.186Z,0.80
2023-06-27T08:43:36.062Z,0.70
2023-06-27T08:46:10.076Z,1.08
2023-06-27T08:48:42.305Z,0.63
2023-06-27T08:51:14.041Z,1.23
2023-06-27T08:53:45.372Z,0.60
2023-06-27T08:56:20.118Z,1.10
2023-06-27T08:58:50.381Z,1.08
2023-06-27T09:01:18.019Z,1.85
2023-06-27T09:03:47.532Z,0.90
2023-06-27T09:06:16.772Z,0.90
2023-06-27T09:08:45.243Z,1.40
2023-06-27T09:11:13.113Z,1.10
2023-06-27T09:13:41.005Z,1.27
2023-06-27T09:16:09.916Z,1.20
2023-06-27T09:18:39.537Z,1.08
2023-06-27T09:21:08.890Z,1.00
2023-06-27T09:23:37.231Z,1.27
2023-06-27T09:26:08.997Z,0.80
2023-06-27T09:28:46.661Z,1.08
2023-06-27T09:31:15.457Z,1.48
2023-06-27T09:33:46.410Z,0.95
2023-06-27T09:39:02.996Z,1.20
2023-06-27T09:41:46.126Z,0.90
2023-06-27T09:44:16.300Z,0.95
2023-06-27T09:46:45.232Z,1.23
2023-06-27T09:49:13.688Z,1.17
2023-06-27T09:51:45.879Z,1.10
2023-06-27T09:54:17.655Z,1.10
2023-06-27T09:56:51.546Z,1.27
2023-06-27T09:59:24.325Z,0.98
2023-06-27T10:01:54.094Z,1.92
2023-06-27T10:06:55.946Z,1.42
2023-06-27T10:09:24.106Z,1.00
2023-06-27T10:11:52.143Z,1.70
2023-06-27T10:14:21.586Z,1.10
2023-06-27T10:16:50.540Z,1.05
2023-06-27T10:19:18.920Z,1.33
2023-06-27T10:21:46.769Z,0.90
2023-06-27T10:24:16.944Z,0.80
2023-06-27T10:26:52.870Z,1.00
2023-06-27T10:29:33.207Z,0.95
2023-06-27T10:32:01.491Z,0.82
2023-06-27T10:34:41.367Z,0.70
2023-06-27T10:37:13.179Z,0.80
2023-06-27T10:39:42.986Z,1.10
2023-06-27T10:42:30.035Z,0.98
2023-06-27T10:45:06.754Z,1.05
2023-06-27T10:47:36.693Z,1.02
2023-06-27T10:50:13.424Z,0.85
2023-06-27T10:52:43.314Z,0.90
2023-06-27T10:55:23.284Z,0.90
2023-06-27T10:58:05.546Z,0.90
2023-06-27T11:00:35.426Z,5.63
2023-06-27T11:03:06.526Z,5.32
2023-06-27T11:05:39.578Z,6.40
2023-06-27T11:08:11.634Z,3.67
2023-06-27T11:10:51.325Z,28.88
2023-06-27T11:13:23.116Z,7.15
2023-06-27T11:15:52.115Z,35.95
2023-06-27T11:18:21.153Z,4.00
2023-06-27T11:20:50.332Z,48.47
2023-06-27T11:23:20.311Z,52.58
2023-06-27T11:25:50.690Z,60.15
2023-06-27T11:28:20.392Z,13.48
2023-06-27T11:30:48.508Z,16.38
2023-06-27T11:33:20.698Z,43.40
2023-06-27T11:35:49.790Z,31.55
2023-06-27T11:38:17.671Z,35.30
2023-06-27T11:40:53.333Z,40.70
2023-06-27T11:43:21.865Z,18.33
2023-06-27T11:45:50.867Z,39.50
2023-06-27T11:48:19.109Z,35.30
2023-06-27T11:51:01.153Z,32.83
2023-06-27T11:53:29.624Z,30.88
2023-06-27T11:56:13.853Z,16.95
2023-06-27T11:58:52.532Z,25.95
2023-06-27T12:01:20.481Z,15.52
2023-06-27T12:03:50.204Z,17.23
2023-06-27T12:06:36.246Z,7.13
2023-06-27T12:09:09.669Z,2.42
2023-06-27T12:11:39.144Z,2.08
2023-06-27T12:14:07.278Z,2.03
2023-06-27T12:16:36.280Z,1.20
2023-06-27T12:19:05.356Z,1.00
2023-06-27T12:21:33.265Z,1.85
2023-06-27T12:24:01.116Z,0.60
2023-06-27T12:26:28.977Z,1.30
2023-06-27T12:28:59.307Z,1.38
2023-06-27T12:31:28.109Z,0.77
2023-06-27T12:33:56.446Z,1.10
2023-06-27T12:36:25.812Z,1.30
2023-06-27T12:38:54.903Z,0.80
2023-06-27T12:41:23.846Z,1.00
2023-06-27T12:43:52.083Z,0.80
2023-06-27T12:46:21.508Z,0.70
2023-06-27T12:48:49.596Z,0.90
2023-06-27T12:51:20.348Z,1.00
2023-06-27T12:53:49.337Z,0.65
2023-06-27T12:56:17.689Z,0.60
2023-06-27T12:58:48.557Z,0.70
2023-06-27T13:01:19.408Z,0.63
2023-06-27T13:03:48.668Z,0.60
2023-06-27T13:06:16.633Z,0.60
2023-06-27T13:08:44.552Z,0.77
2023-06-27T13:11:12.600Z,0.60
2023-06-27T13:13:41.628Z,0.95
2023-06-27T13:16:16.143Z,0.80
2023-06-27T13:18:47.033Z,0.65
2023-06-27T13:21:17.049Z,0.55
2023-06-27T13:23:44.952Z,0.73
2023-06-27T13:26:12.928Z,0.63
2023-06-27T13:28:41.041Z,0.50
2023-06-27T13:31:09.102Z,1.00
2023-06-27T13:33:37.109Z,0.68
2023-06-27T13:36:06.443Z,0.57
2023-06-27T13:38:35.650Z,0.82
2023-06-27T13:41:04.197Z,0.60
2023-06-27T13:43:32.279Z,0.80
2023-06-27T13:46:00.272Z,0.60
2023-06-27T13:48:28.134Z,0.68
2023-06-27T13:50:56.138Z,0.75
2023-06-27T13:53:24.645Z,0.90
2023-06-27T13:55:54.402Z,0.80
2023-06-27T13:58:24.187Z,0.60
2023-06-27T14:00:52.434Z,0.75
2023-06-27T14:03:21.728Z,0.68
2023-06-27T14:05:50.099Z,0.70
2023-06-27T14:08:18.283Z,0.90
2023-06-27T14:10:46.328Z,0.80
2023-06-27T14:13:15.709Z,0.80
2023-06-27T14:15:45.847Z,0.80
2023-06-27T14:18:14.849Z,0.95
2023-06-27T14:20:42.985Z,1.08
2023-06-27T14:23:11.263Z,1.15
2023-06-27T14:25:39.150Z,1.67
2023-06-27T14:28:07.070Z,1.48
2023-06-27T14:30:36.557Z,1.27
2023-06-27T14:33:04.546Z,0.70
2023-06-27T14:35:32.531Z,0.50
2023-06-27T14:38:00.544Z,0.50
2023-06-27T14:40:28.521Z,0.73
2023-06-27T14:42:56.462Z,0.80
2023-06-27T14:45:24.319Z,0.93
2023-06-27T14:47:55.519Z,1.00
2023-06-27T14:50:23.764Z,1.55
2023-06-27T14:52:51.745Z,1.10
2023-06-27T14:55:19.688Z,1.17
2023-06-27T14:57:47.668Z,1.20
2023-06-27T15:00:17.273Z,0.80
2023-06-27T15:02:45.610Z,0.70
2023-06-27T15:05:15.458Z,0.85
2023-06-27T15:07:43.440Z,0.70
2023-06-27T15:10:11.929Z,0.70
2023-06-27T15:12:40.204Z,0.80
2023-06-27T15:15:09.238Z,0.60
2023-06-27T15:17:37.853Z,0.90
2023-06-27T15:20:07.199Z,0.70
2023-06-27T15:22:36.698Z,0.60
2023-06-27T15:25:04.953Z,0.85
2023-06-27T15:27:34.299Z,0.52
2023-06-27T15:30:02.108Z,1.00
2023-06-27T15:32:29.962Z,0.90
2023-06-27T15:34:57.955Z,0.80
2023-06-27T15:37:25.787Z,0.70
2023-06-27T15:39:55.519Z,0.60
2023-06-27T15:42:23.510Z,1.13
2023-06-27T15:44:51.637Z,0.70
2023-06-27T15:47:21.466Z,0.70
2023-06-27T15:49:49.475Z,0.90
2023-06-27T15:52:17.363Z,0.80
2023-06-27T15:54:45.249Z,0.73
2023-06-27T15:57:14.847Z,0.90
2023-06-27T15:59:42.720Z,0.70
2023-06-27T16:02:10.517Z,0.80
2023-06-27T16:04:38.376Z,0.90
2023-06-27T16:07:09.006Z,0.65
2023-06-27T16:09:36.957Z,0.80
2023-06-27T16:12:05.336Z,0.70
2023-06-27T16:14:36.044Z,0.60
2023-06-27T16:17:05.386Z,0.82
2023-06-27T16:19:33.368Z,0.70
2023-06-27T16:22:02.565Z,0.70
2023-06-27T16:24:30.642Z,0.60
2023-06-27T16:26:58.514Z,0.57
2023-06-27T16:29:26.506Z,0.77
2023-06-27T16:31:55.912Z,0.68
2023-06-27T16:34:23.982Z,0.50
2023-06-27T16:36:51.915Z,0.50
2023-06-27T16:39:19.940Z,0.68
2023-06-27T16:41:47.769Z,0.73
2023-06-27T16:44:15.645Z,0.70
2023-06-27T16:46:43.732Z,0.60
2023-06-27T16:49:14.121Z,0.75
2023-06-27T16:51:41.928Z,1.25
2023-06-27T16:54:09.717Z,0.95
2023-06-27T16:56:38.154Z,0.70
2023-06-27T16:59:06.000Z,0.82
2023-06-27T17:01:33.772Z,0.70
2023-06-27T17:04:01.671Z,0.90
2023-06-27T17:06:31.036Z,1.15
2023-06-27T17:08:59.784Z,0.90
2023-06-27T17:11:32.403Z,1.33
2023-06-27T17:14:00.270Z,0.70
2023-06-27T17:16:28.027Z,0.80
2023-06-27T17:18:55.960Z,1.30
2023-06-27T17:21:24.000Z,0.70
2023-06-27T17:23:53.250Z,0.90
2023-06-27T17:26:21.293Z,1.00
2023-06-27T17:28:49.735Z,1.13
2023-06-27T17:31:17.733Z,0.73
2023-06-27T17:33:45.636Z,0.80
2023-06-27T17:36:13.415Z,0.70
2023-06-27T17:38:41.250Z,0.90
2023-06-27T17:41:10.548Z,0.85
2023-06-27T17:43:38.453Z,0.80
2023-06-27T17:46:06.335Z,1.00
2023-06-27T17:48:35.737Z,1.20
2023-06-27T17:51:06.042Z,1.10
2023-06-27T17:53:34.080Z,1.23
2023-06-27T17:56:01.896Z,0.70
2023-06-27T17:58:31.017Z,0.73
2023-06-27T18:01:00.449Z,1.20
2023-06-27T18:03:28.506Z,1.35
2023-06-27T18:05:56.476Z,1.00
2023-06-27T18:08:24.605Z,0.90
2023-06-27T18:10:53.384Z,0.90
2023-06-27T18:13:21.659Z,1.30
2023-06-27T18:15:50.820Z,1.40
2023-06-27T18:18:18.942Z,1.05
2023-06-27T18:20:46.817Z,1.00
2023-06-27T18:23:16.498Z,1.05
2023-06-27T18:25:44.576Z,1.00
2023-06-27T18:28:12.545Z,1.38
2023-06-27T18:30:41.020Z,1.38
2023-06-27T18:33:10.608Z,1.13
2023-06-27T18:35:39.278Z,1.10
2023-06-27T18:38:07.539Z,1.02
2023-06-27T18:40:35.422Z,1.20
2023-06-27T18:43:03.320Z,1.35
2023-06-27T18:45:31.224Z,1.40
2023-06-27T18:47:59.634Z,1.00
2023-06-27T18:50:28.916Z,1.10
2023-06-27T18:52:56.657Z,1.00
2023-06-27T18:55:24.779Z,1.35
2023-06-27T18:57:52.621Z,1.20
2023-06-27T19:00:20.674Z,1.27
2023-06-27T19:02:48.590Z,1.20
2023-06-27T19:05:16.466Z,1.10
2023-06-27T19:07:45.756Z,1.23
2023-06-27T19:10:13.923Z,1.00
2023-06-27T19:12:41.776Z,1.73
2023-06-27T19:15:10.278Z,1.23
2023-06-27T19:17:38.260Z,1.60
2023-06-27T19:20:08.044Z,1.30
2023-06-27T19:22:36.270Z,1.27
2023-06-27T19:25:06.091Z,1.10
2023-06-27T19:27:33.924Z,0.90
2023-06-27T19:30:01.802Z,1.00
2023-06-27T19:32:29.749Z,1.10
2023-06-27T19:34:57.737Z,1.30
2023-06-27T19:37:26.040Z,1.00
2023-06-27T19:39:53.950Z,1.05
2023-06-27T19:42:23.361Z,1.10
2023-06-27T19:44:51.157Z,1.17
2023-06-27T19:47:19.195Z,1.00
2023-06-27T19:49:47.057Z,1.27
2023-06-27T19:52:14.850Z,1.48
2023-06-27T19:54:42.614Z,1.20
2023-06-27T19:57:19.696Z,1.42
2023-06-27T19:59:48.833Z,1.30
2023-06-27T20:02:16.695Z,1.25
2023-06-27T20:04:44.484Z,1.20
2023-06-27T20:07:12.341Z,1.55
2023-06-27T20:09:45.247Z,1.40
2023-06-27T20:12:14.275Z,1.55
2023-06-27T20:14:44.423Z,1.40
2023-06-27T20:17:13.651Z,1.52
2023-06-27T20:19:41.779Z,1.65
2023-06-27T20:22:09.770Z,1.35
2023-06-27T20:24:37.497Z,1.65
2023-06-27T20:27:07.984Z,1.50
2023-06-27T20:29:35.895Z,2.30
2023-06-27T20:32:03.792Z,1.70
2023-06-27T20:34:33.027Z,1.95
2023-06-27T20:37:00.862Z,2.22
2023-06-27T20:39:28.653Z,1.23
2023-06-27T20:41:56.603Z,1.55
2023-06-27T20:44:24.525Z,1.73
2023-06-27T20:46:52.752Z,1.73
2023-06-27T20:49:20.843Z,1.50
2023-06-27T20:51:50.520Z,1.80
2023-06-27T20:54:18.490Z,1.58
2023-06-27T20:56:46.750Z,1.70
2023-06-27T20:59:14.644Z,1.60
2023-06-27T21:01:42.495Z,1.60
2023-06-27T21:04:10.327Z,1.38
2023-06-27T21:06:38.170Z,1.60
2023-06-27T21:09:07.343Z,1.70
2023-06-27T21:11:35.265Z,1.88
2023-06-27T21:14:03.098Z,1.30
2023-06-27T21:16:31.036Z,1.63
2023-06-27T21:18:59.045Z,2.17
2023-06-27T21:21:26.841Z,2.08
2023-06-27T21:23:54.718Z,1.70
2023-06-27T21:26:24.400Z,1.70
2023-06-27T21:28:53.264Z,2.35
2023-06-27T21:31:21.284Z,1.73
2023-06-27T21:33:49.785Z,1.77
2023-06-27T21:36:17.813Z,2.00
2023-06-27T21:38:46.677Z,2.20
2023-06-27T21:41:14.552Z,1.80
2023-06-27T21:43:43.716Z,2.33
2023-06-27T21:46:11.414Z,1.83
2023-06-27T21:48:39.317Z,2.15
2023-06-27T21:51:07.136Z,1.65
2023-06-27T21:53:35.582Z,1.70
2023-06-27T21:56:03.403Z,1.83
2023-06-27T21:58:31.173Z,1.70
2023-06-27T22:01:00.410Z,1.90
2023-06-27T22:03:36.361Z,1.60
2023-06-27T22:06:04.297Z,1.55
2023-06-27T22:08:32.321Z,1.70
2023-06-27T22:11:01.257Z,2.88
2023-06-27T22:13:29.103Z,1.85
2023-06-27T22:15:56.960Z,1.80
2023-06-27T22:18:26.181Z,2.13
2023-06-27T22:20:53.967Z,2.33
2023-06-27T22:23:21.774Z,1.83
2023-06-27T22:25:49.695Z,2.03
2023-06-27T22:28:17.552Z,2.50
2023-06-27T22:30:45.477Z,2.08
2023-06-27T22:33:13.579Z,2.17
2023-06-27T22:35:42.711Z,1.95
2023-06-27T22:38:10.566Z,2.10
2023-06-27T22:40:38.458Z,2.15
2023-06-27T22:43:06.285Z,1.85
2023-06-27T22:45:34.117Z,2.47
2023-06-27T22:48:01.973Z,2.10
2023-06-27T22:50:29.815Z,2.38
2023-06-27T22:52:59.282Z,2.47
2023-06-27T22:55:27.177Z,2.38
2023-06-27T22:57:55.025Z,2.28
2023-06-27T23:00:22.800Z,2.17
2023-06-27T23:02:50.570Z,2.20
2023-06-27T23:05:18.417Z,2.80
2023-06-27T23:07:46.360Z,2.25
2023-06-27T23:10:15.488Z,2.50
2023-06-27T23:12:43.233Z,3.10
2023-06-27T23:15:11.150Z,2.00
2023-06-27T23:17:39.193Z,2.75
2023-06-27T23:20:11.421Z,2.25
2023-06-27T23:22:39.854Z,2.28
2023-06-27T23:25:08.347Z,3.05
2023-06-27T23:27:41.774Z,3.25
2023-06-27T23:30:10.390Z,2.15
2023-06-27T23:32:40.097Z,2.58
2023-06-27T23:35:08.506Z,2.90
2023-06-27T23:37:36.665Z,2.58
2023-06-27T23:40:08.236Z,2.20
2023-06-27T23:42:37.381Z,2.08
2023-06-27T23:45:05.894Z,2.58
2023-06-27T23:47:33.762Z,2.80
2023-06-27T23:50:01.651Z,2.58
2023-06-27T23:52:29.372Z,2.10
2023-06-27T23:54:57.154Z,3.10
2023-06-27T23:57:24.949Z,2.63
2023-06-27T23:59:54.085Z,2.47
